Time;durP1;ratioP1;P1;durP2;ratioP2;P2;SDS_P1;SDS_P2;PMS_P1;PMS_P2;Temp;Humidity;BMP_temperature;BMP_pressure;BME280_temperature;BME280_humidity;BME280_pressure;Samples;Min_cycle;Max_cycle;Signal;HPM_P1;HPM_P2
2022/02/11 00:02:19;;;;;;;2.85;2.75;;;;;;;2.04;100.00;101704.59;5973184;23;20038;-70
2022/02/11 00:07:17;;;;;;;2.90;2.80;;;;;;;2.56;100.00;101781.38;6038408;23;20066;-70
2022/02/11 00:09:43;;;;;;;4.28;4.07;;;;;;;1.71;100.00;101643.38;6024730;23;20093;-71
2022/02/11 00:12:10;;;;;;;2.90;2.80;;;;;;;2.50;100.00;101791.75;6030014;23;20097;-71
2022/02/11 00:14:48;;;;;;;4.70;4.50;;;;;;;2.46;100.00;101785.72;5999516;23;20031;-73
2022/02/11 00:17:15;;;;;;;2.80;2.70;;;;;;;1.43;100.00;101627.84;6005198;23;20402;-70
2022/02/11 00:19:42;;;;;;;4.65;4.45;;;;;;;2.38;100.00;101798.66;6028165;23;20046;-69
2022/02/11 00:22:09;;;;;;;2.92;2.83;;;;;;;1.58;100.00;101656.31;6036148;23;20520;-70
2022/02/11 00:24:35;;;;;;;4.22;4.03;;;;;;;2.26;100.00;101770.19;6025521;23;20137;-68
2022/02/11 00:33:03;;;;;;;4.32;4.13;;;;;;;2.21;100.00;101786.63;6019037;23;20029;-72
2022/02/11 00:35:38;;;;;;;3.17;3.08;;;;;;;2.10;100.00;101778.81;6001340;23;20334;-70
2022/02/11 00:38:11;;;;;;;2.70;2.60;;;;;;;2.09;100.00;101798.69;6030535;23;20451;-72
2022/02/11 00:46:12;;;;;;;2.90;2.80;;;;;;;1.65;100.00;101770.16;6007084;23;20011;-71
2022/02/11 01:02:22;;;;;;;2.78;2.67;;;;;;;1.44;100.00;101776.13;6042155;23;20096;-72
2022/02/11 01:04:48;;;;;;;;;;;;;;;1.60;100.00;101785.66;6017713;23;20392;-71
2022/02/11 01:07:15;;;;;;;2.70;2.60;;;;;;;1.65;100.00;101806.38;6009585;23;20364;-71
2022/02/11 01:09:42;;;;;;;4.45;4.25;;;;;;;1.47;100.00;101779.59;6024075;23;20074;-70
2022/02/11 01:12:10;;;;;;;2.97;2.88;;;;;;;1.47;100.00;101795.13;6020370;23;20026;-71
2022/02/11 01:14:57;;;;;;;4.28;4.07;;;;;;;1.69;100.00;101808.13;6024806;23;20522;-71
2022/02/11 01:17:32;;;;;;;2.83;2.72;;;;;;;0.98;100.00;101719.94;6038641;23;20472;-70
2022/02/11 01:20:09;;;;;;;3.25;3.15;;;;;;;1.71;100.00;101806.41;6007459;23;20026;-70
2022/02/11 01:28:17;;;;;;;3.00;2.90;;;;;;;1.62;100.00;101801.19;5998989;23;20051;-71
2022/02/11 01:30:58;;;;;;;3.05;2.95;;;;;;;1.64;100.00;101799.47;6029998;23;20101;-70
2022/02/11 01:51:27;;;;;;;2.70;2.60;;;;;;;1.38;100.00;101774.38;6013637;23;20023;-70
2022/02/11 01:54:11;;;;;;;2.70;2.60;;;;;;;0.77;100.00;101712.97;6044527;23;20038;-70
2022/02/11 01:57:37;;;;;;;4.38;4.18;;;;;;;1.04;100.00;101757.88;6005915;23;20021;-70
2022/02/11 02:03:02;;;;;;;2.78;2.67;;;;;;;1.13;100.00;101791.53;6040511;23;20707;-70
2022/02/11 02:24:16;;;;;;;2.70;2.60;;;;;;;0.55;100.00;101712.88;6036266;23;20031;-71
2022/02/11 02:59:22;;;;;;;2.80;2.70;;;;;;;1.39;100.00;101783.88;5997203;23;20460;-71
2022/02/11 03:16:03;;;;;;;2.60;2.50;;;;;;;1.53;100.00;101800.31;6004973;23;20034;-70
2022/02/11 03:35:16;;;;;;;2.88;2.78;;;;;;;1.08;100.00;101729.47;6033282;23;20037;-70
2022/02/11 04:56:45;;;;;;;4.07;3.88;;;;;;;2.30;99.46;101867.75;5968052;23;20016;-70
2022/02/11 05:01:58;;;;;;;2.80;2.70;;;;;;;2.32;100.00;101883.28;5992473;23;20390;-70
2022/02/11 05:04:25;;;;;;;2.70;2.60;;;;;;;1.78;100.00;101796.06;6039579;23;20031;-70
2022/02/11 05:06:51;;;;;;;2.90;2.80;;;;;;;2.29;100.00;101889.34;6025577;23;20429;-70
2022/02/11 05:09:18;;;;;;;2.53;2.42;;;;;;;2.05;99.31;101829.75;6032708;23;20179;-70
2022/02/11 05:11:44;;;;;;;4.18;3.97;;;;;;;1.66;100.00;101775.31;6016084;23;20113;-70
2022/02/11 05:14:13;;;;;;;4.95;4.75;;;;;;;2.31;99.71;101881.59;6024878;23;20034;-70
2022/02/11 05:16:39;;;;;;;4.70;4.50;;;;;;;1.64;99.56;101786.53;6002044;23;20128;-71
2022/02/11 05:19:05;;;;;;;2.78;2.67;;;;;;;2.25;100.00;101881.56;6006153;23;20103;-70
2022/02/11 05:21:32;;;;;;;4.00;3.83;;;;;;;2.44;99.25;101887.63;5983714;23;20051;-70
2022/02/11 05:23:58;;;;;;;2.80;2.70;;;;;;;2.57;99.89;101892.81;6036277;23;20459;-70
2022/02/11 05:26:25;;;;;;;2.90;2.80;;;;;;;2.35;98.99;101858.25;6025106;23;20035;-70
2022/02/11 05:28:51;;;;;;;2.80;2.70;;;;;;;2.54;99.50;101873.81;5995595;23;20414;-70
2022/02/11 05:31:18;;;;;;;2.67;2.58;;;;;;;2.54;98.94;101891.94;6026048;23;20031;-71
2022/02/11 05:33:44;;;;;;;4.28;4.07;;;;;;;2.09;98.67;101813.38;6002615;23;20035;-70
2022/02/11 05:36:11;;;;;;;3.08;2.97;;;;;;;2.05;99.34;101819.41;6017133;23;20042;-70
2022/02/11 05:38:37;;;;;;;4.20;4.00;;;;;;;2.68;98.60;101891.94;6000235;23;20027;-70
2022/02/11 05:41:04;;;;;;;2.85;2.75;;;;;;;2.62;98.68;101918.72;6010097;23;20123;-70
2022/02/11 05:43:30;;;;;;;3.63;3.42;;;;;;;2.07;98.28;101815.94;6031556;23;20014;-70
2022/02/11 05:45:56;;;;;;;3.20;3.10;;;;;;;2.68;98.15;101921.31;5988690;23;20027;-70
2022/02/11 05:48:23;;;;;;;2.70;2.60;;;;;;;2.72;98.85;101936.00;6009919;23;20562;-70
2022/02/11 05:50:49;;;;;;;2.80;2.70;;;;;;;2.35;98.26;101862.59;6009875;23;21039;-70
2022/02/11 05:53:16;;;;;;;3.45;3.25;;;;;;;2.45;98.08;101891.97;6001267;23;20039;-70
2022/02/11 05:55:42;;;;;;;4.25;4.05;;;;;;;2.64;97.83;101913.53;6032918;23;20081;-70
2022/02/11 05:58:08;;;;;;;2.70;2.60;;;;;;;1.71;98.35;101765.00;6023485;23;20090;-70
2022/02/11 06:00:35;;;;;;;4.20;4.00;;;;;;;2.81;98.45;101955.91;6000725;23;20661;-70
2022/02/11 06:03:01;;;;;;;2.70;2.60;;;;;;;2.83;99.05;101966.25;6000735;23;20067;-70
2022/02/11 06:05:28;;;;;;;2.90;2.80;;;;;;;2.48;98.65;101907.50;6031007;23;20056;-70
2022/02/11 06:07:54;;;;;;;2.90;2.80;;;;;;;2.48;98.96;101903.16;6030563;23;20025;-70
2022/02/11 06:10:21;;;;;;;2.60;2.50;;;;;;;2.76;98.88;101934.28;5999504;23;20046;-70
2022/02/11 06:12:47;;;;;;;3.17;3.08;;;;;;;2.93;98.18;101958.50;6023357;23;20121;-70
2022/02/11 06:15:14;;;;;;;4.88;4.68;;;;;;;0.74;98.28;101597.56;6031771;23;20034;-70
2022/02/11 06:17:40;;;;;;;4.43;4.22;;;;;;;2.97;97.84;101970.59;6036456;23;20366;-69
2022/02/11 06:20:08;;;;;;;2.78;2.67;;;;;;;2.93;98.95;101980.97;6026818;23;20447;-69
2022/02/11 06:22:34;;;;;;;4.05;3.88;;;;;;;2.96;99.26;101978.34;6010506;23;20080;-70
2022/02/11 06:25:00;;;;;;;2.80;2.70;;;;;;;2.53;98.45;101908.38;6041713;23;20006;-70
2022/02/11 06:27:27;;;;;;;2.75;2.65;;;;;;;2.90;99.12;101976.63;6022418;23;20105;-70
2022/02/11 06:29:53;;;;;;;3.10;3.00;;;;;;;2.94;98.92;101985.28;5997634;23;20027;-69
2022/02/11 06:32:20;;;;;;;5.22;3.08;;;;;;;2.57;98.87;101913.53;6029779;23;20093;-69
2022/02/11 06:34:46;;;;;;;4.07;3.88;;;;;;;2.98;98.21;102002.56;5998397;23;20193;-68
2022/02/11 06:37:13;;;;;;;2.70;2.60;;;;;;;2.80;97.92;101970.56;6025883;23;21764;-69
2022/02/11 06:39:39;;;;;;;4.40;4.20;;;;;;;3.04;98.02;102004.28;5980298;23;20050;-69
2022/02/11 06:42:06;;;;;;;2.90;2.80;;;;;;;2.73;97.83;101957.63;6018788;23;20097;-69
2022/02/11 06:44:32;;;;;;;3.42;3.30;;;;;;;3.15;97.23;102021.59;6004725;23;20011;-70
2022/02/11 06:46:59;;;;;;;2.80;2.70;;;;;;;3.22;97.49;102034.56;6013940;23;20023;-69
2022/02/11 06:49:25;;;;;;;2.85;2.75;;;;;;;3.18;97.31;102039.72;6024978;23;20026;-70
2022/02/11 06:51:53;;;;;;;2.72;2.63;;;;;;;3.24;96.93;102045.78;5976543;23;20024;-69
2022/02/11 06:54:20;;;;;;;2.80;2.70;;;;;;;2.99;96.99;102009.50;6045839;23;20448;-69
2022/02/11 06:56:46;;;;;;;4.15;3.95;;;;;;;2.89;96.61;101987.88;6002996;23;20042;-70
2022/02/11 06:59:13;;;;;;;2.70;2.60;;;;;;;3.28;96.42;102052.72;6019233;23;20027;-70
2022/02/11 07:01:40;;;;;;;4.07;3.88;;;;;;;3.19;96.19;102038.03;6035501;23;20015;-71
2022/02/11 07:04:12;;;;;;;2.70;2.60;;;;;;;3.00;96.53;102011.19;6025520;23;20022;-70
2022/02/11 07:06:38;;;;;;;4.47;4.28;;;;;;;3.34;96.68;102065.69;6001814;23;20388;-71
2022/02/11 07:09:05;;;;;;;2.70;2.60;;;;;;;3.44;96.35;102082.13;6011476;23;20179;-70
2022/02/11 07:11:31;;;;;;;3.35;3.25;;;;;;;3.44;95.38;102084.72;6022987;23;20037;-71
2022/02/11 07:13:58;;;;;;;4.80;3.47;;;;;;;3.47;94.78;102095.06;6031620;23;20074;-70
2022/02/11 07:16:24;;;;;;;3.38;3.28;;;;;;;2.21;95.37;101888.47;5997648;23;20241;-71
2022/02/11 07:18:50;;;;;;;3.00;2.90;;;;;;;3.51;95.47;102083.88;6021752;23;20047;-71
2022/02/11 07:21:17;;;;;;;2.90;2.80;;;;;;;3.52;94.77;102103.75;6019988;23;20043;-71
2022/02/11 07:23:43;;;;;;;4.28;4.07;;;;;;;2.74;93.47;101988.72;6032686;23;20019;-71
2022/02/11 07:26:10;;;;;;;2.88;2.78;;;;;;;3.43;94.08;102115.00;6038722;23;20297;-70
2022/02/11 07:28:36;;;;;;;4.60;4.40;;;;;;;3.40;94.38;102115.00;5998193;23;20090;-71
2022/02/11 07:31:03;;;;;;;3.13;3.03;;;;;;;2.86;94.11;102029.34;6015687;23;20022;-70
2022/02/11 07:33:30;;;;;;;2.97;2.88;;;;;;;3.16;94.48;102070.00;6032752;23;20019;-70
2022/02/11 07:35:56;;;;;;;2.90;2.80;;;;;;;3.23;94.18;102117.59;6022241;23;20085;-70
2022/02/11 07:38:26;;;;;;;2.85;2.75;;;;;;;3.29;95.14;102106.34;6000690;23;20065;-69
2022/02/11 07:40:52;;;;;;;3.20;3.10;;;;;;;3.50;94.74;102147.00;6024854;23;20015;-70
2022/02/11 07:43:18;;;;;;;2.85;2.75;;;;;;;3.12;95.47;102077.78;6032058;23;20022;-70
2022/02/11 07:46:05;;;;;;;3.00;2.90;;;;;;;3.32;94.97;102116.72;6014370;23;20397;-70
2022/02/11 07:48:31;;;;;;;3.33;3.22;;;;;;;3.62;94.99;102162.56;5987193;23;20043;-70
2022/02/11 07:50:58;;;;;;;3.00;2.90;;;;;;;3.57;95.60;102159.13;6014570;23;21336;-70
2022/02/11 07:53:24;;;;;;;3.17;3.08;;;;;;;2.92;95.98;102073.44;6030706;23;20464;-70
2022/02/11 07:55:52;;;;;;;3.30;3.20;;;;;;;3.22;95.97;102165.13;6011554;23;20042;-71
2022/02/11 07:58:20;;;;;;;2.85;2.75;;;;;;;3.35;96.04;102173.81;5989468;23;20030;-70
2022/02/11 08:00:47;;;;;;;4.50;4.30;;;;;;;3.28;95.93;102146.97;6026891;23;20015;-70
2022/02/11 08:03:13;;;;;;;3.67;3.58;;;;;;;3.59;94.93;102188.56;6029572;23;20029;-70
2022/02/11 08:05:40;;;;;;;4.50;4.30;;;;;;;2.99;95.54;102121.00;6025272;23;20039;-70
2022/02/11 08:08:06;;;;;;;3.00;2.90;;;;;;;3.52;95.36;102207.56;6003343;23;20101;-70
2022/02/11 08:10:33;;;;;;;3.42;3.33;;;;;;;3.38;94.40;102179.84;6019080;23;20093;-71
2022/02/11 08:12:59;;;;;;;3.00;2.90;;;;;;;3.46;94.84;102210.16;6034413;23;20330;-70
2022/02/11 08:15:26;;;;;;;3.15;3.05;;;;;;;3.49;95.29;102221.41;5993755;23;20035;-71
2022/02/11 08:17:52;;;;;;;3.10;3.00;;;;;;;3.44;96.26;102230.91;5981999;23;20035;-71
2022/02/11 08:20:19;;;;;;;3.20;3.10;;;;;;;3.20;95.41;102200.56;6005900;23;20094;-70
2022/02/11 08:22:45;;;;;;;4.78;4.57;;;;;;;3.49;95.36;102239.56;5995119;23;20360;-71
2022/02/11 08:25:11;;;;;;;3.10;3.00;;;;;;;3.37;95.30;102211.00;6028269;23;20030;-70
2022/02/11 08:27:40;;;;;;;3.08;2.97;;;;;;;2.57;94.64;102109.66;6029741;23;20499;-70
2022/02/11 08:30:07;;;;;;;3.10;3.00;;;;;;;2.91;95.25;102162.47;5998714;23;20015;-70
2022/02/11 08:32:33;;;;;;;2.90;2.80;;;;;;;3.66;94.54;102272.50;6023799;23;20050;-70
2022/02/11 08:35:00;;;;;;;3.20;3.10;;;;;;;3.56;94.86;102220.53;6001480;23;20091;-69
2022/02/11 08:37:27;;;;;;;2.90;2.80;;;;;;;3.70;93.20;102230.09;6022748;23;20056;-71
2022/02/11 08:39:53;;;;;;;3.25;3.15;;;;;;;4.07;92.96;102282.03;6031926;23;20377;-70
2022/02/11 08:42:20;;;;;;;3.20;3.10;;;;;;;3.95;91.65;102251.75;6000787;23;20058;-69
2022/02/11 08:44:47;;;;;;;4.18;3.97;;;;;;;4.20;91.45;102304.56;6012532;23;20405;-69
2022/02/11 08:47:15;;;;;;;3.00;2.90;;;;;;;4.13;91.92;102303.72;6022086;23;20045;-70
2022/02/11 08:49:41;;;;;;;3.55;3.45;;;;;;;4.15;91.62;102314.97;6012635;23;20401;-70
2022/02/11 08:52:09;;;;;;;3.22;3.13;;;;;;;4.14;91.30;102312.38;5997077;23;20516;-70
2022/02/11 08:54:35;;;;;;;4.80;4.60;;;;;;;4.31;91.55;102321.03;6004701;23;20085;-70
2022/02/11 08:57:02;;;;;;;3.00;2.90;;;;;;;4.31;91.70;102325.34;5983240;23;20034;-70
2022/02/11 08:59:28;;;;;;;3.40;3.30;;;;;;;4.23;90.17;102340.06;5983179;23;20023;-71
2022/02/11 09:01:55;;;;;;;3.30;3.20;;;;;;;3.91;89.88;102299.34;5996851;23;20499;-71
2022/02/11 09:04:21;;;;;;;3.50;3.40;;;;;;;3.44;90.55;102248.22;5963800;23;20124;-70
2022/02/11 09:06:48;;;;;;;3.90;3.75;;;;;;;3.91;89.89;102275.97;5988938;23;20073;-70
2022/02/11 09:09:18;;;;;;;3.40;3.30;;;;;;;4.00;89.21;102325.34;6026387;23;20027;-70
2022/02/11 09:11:44;;;;;;;4.95;4.75;;;;;;;3.96;88.46;102310.63;5991954;23;20082;-70
2022/02/11 09:14:12;;;;;;;3.15;3.05;;;;;;;3.86;88.19;102304.53;6018201;23;20105;-71
2022/02/11 09:16:38;;;;;;;4.80;4.60;;;;;;;4.38;86.74;102371.28;5995296;23;20023;-71
2022/02/11 09:19:09;;;;;;;3.00;2.90;;;;;;;3.99;87.53;102293.31;6032833;23;20094;-70
2022/02/11 09:21:36;;;;;;;4.57;4.38;;;;;;;4.60;86.03;102383.41;6008366;23;20098;-70
2022/02/11 09:24:03;;;;;;;3.00;2.90;;;;;;;4.73;85.05;102392.09;6015561;23;20018;-70
2022/02/11 09:26:30;;;;;;;3.30;3.20;;;;;;;4.38;83.37;102324.50;6014979;23;20075;-71
2022/02/11 09:28:58;;;;;;;3.75;3.45;;;;;;;4.18;82.86;102285.53;5964891;23;21067;-70
2022/02/11 09:31:27;;;;;;;3.20;3.10;;;;;;;4.66;81.93;102377.34;6021980;23;20046;-70
2022/02/11 09:34:03;;;;;;;3.10;3.00;;;;;;;4.67;81.36;102349.59;5992079;23;20085;-70
2022/02/11 09:36:34;;;;;;;3.50;3.38;;;;;;;4.95;81.59;102408.56;5997309;23;20084;-70
2022/02/11 09:39:05;;;;;;;3.30;3.20;;;;;;;4.87;80.34;102405.09;6026489;23;20706;-70
2022/02/11 09:41:34;;;;;;;3.30;3.20;;;;;;;4.87;80.20;102394.69;6026612;23;20826;-70
2022/02/11 09:44:04;;;;;;;3.30;3.20;;;;;;;4.94;79.96;102404.19;6036337;23;20038;-70
2022/02/11 09:46:32;;;;;;;3.53;3.38;;;;;;;5.12;79.44;102410.25;6000391;23;20332;-70
2022/02/11 09:48:58;;;;;;;3.15;3.05;;;;;;;4.57;77.46;102372.13;5995033;23;20011;-70
2022/02/11 09:51:23;;;;;;;3.30;3.20;;;;;;;4.83;78.39;102415.47;6030640;23;20054;-70
2022/02/11 09:53:51;;;;;;;3.58;3.45;;;;;;;4.89;78.01;102431.97;6038092;23;20413;-70
2022/02/11 09:56:19;;;;;;;4.80;4.30;;;;;;;5.04;78.54;102423.28;5977608;23;20219;-70
2022/02/11 09:59:03;;;;;;;3.20;3.10;;;;;;;4.80;76.73;102416.34;6027744;23;20198;-71
2022/02/11 10:01:30;;;;;;;3.17;3.08;;;;;;;4.66;75.89;102369.53;5991687;23;20041;-71
2022/02/11 10:04:12;;;;;;;3.30;3.20;;;;;;;5.16;74.12;102438.84;5983887;23;20449;-71
2022/02/11 10:06:39;;;;;;;4.35;4.15;;;;;;;4.70;75.38;102380.81;6021001;23;20041;-70
2022/02/11 10:09:06;;;;;;;6.30;3.58;;;;;;;5.14;75.16;102455.34;6005964;23;20029;-70
2022/02/11 10:11:32;;;;;;;3.60;3.47;;;;;;;3.94;74.39;102253.47;6000909;23;20030;-71
2022/02/11 10:14:24;;;;;;;3.00;2.90;;;;;;;5.12;73.96;102434.53;6030229;23;20021;-70
2022/02/11 10:16:57;;;;;;;4.45;4.25;;;;;;;5.46;73.90;102472.66;6030784;23;20043;-70
2022/02/11 10:19:43;;;;;;;3.70;3.60;;;;;;;5.25;72.96;102442.31;5994427;23;20032;-71
2022/02/11 10:22:30;;;;;;;3.30;3.20;;;;;;;5.57;72.09;102496.91;6003740;23;20082;-70
2022/02/11 10:24:58;;;;;;;3.40;3.30;;;;;;;4.81;71.09;102358.25;6038219;23;20519;-70
2022/02/11 10:27:33;;;;;;;3.20;3.10;;;;;;;5.79;72.18;102487.31;6017794;23;20039;-70
2022/02/11 10:30:04;;;;;;;3.30;3.20;;;;;;;5.76;71.65;102484.72;5996644;23;20098;-71
2022/02/11 10:32:46;;;;;;;3.38;3.28;;;;;;;5.69;70.11;102494.31;6027689;23;20083;-71
2022/02/11 10:35:18;;;;;;;3.20;3.10;;;;;;;5.52;70.92;102509.09;6023457;23;20040;-70
2022/02/11 10:38:11;;;;;;;3.30;3.20;;;;;;;5.74;70.62;102510.78;6002161;23;20015;-70
2022/02/11 10:40:40;;;;;;;4.78;4.57;;;;;;;5.92;69.29;102516.81;6019276;23;20036;-70
2022/02/11 10:43:20;;;;;;;3.10;3.00;;;;;;;5.18;68.54;102415.44;6032517;23;20014;-70
2022/02/11 10:45:48;;;;;;;4.15;3.95;;;;;;;5.58;69.51;102476.09;6040556;23;20231;-70
2022/02/11 10:48:17;;;;;;;3.30;3.20;;;;;;;5.75;69.85;102511.63;6030318;23;21342;-70
2022/02/11 10:50:57;;;;;;;4.40;4.20;;;;;;;5.76;69.76;102523.81;6008331;23;20093;-70
2022/02/11 10:53:31;;;;;;;3.20;3.10;;;;;;;5.23;70.87;102462.28;5998995;23;20085;-71
2022/02/11 10:55:59;;;;;;;3.15;3.05;;;;;;;5.79;71.30;102549.84;6024876;23;20019;-71
2022/02/11 10:58:29;;;;;;;3.55;3.45;;;;;;;5.96;71.08;102529.00;5995489;23;20078;-71
2022/02/11 11:01:00;;;;;;;3.20;3.10;;;;;;;5.88;69.19;102523.75;6010523;23;20042;-71
2022/02/11 11:03:34;;;;;;;3.15;3.05;;;;;;;5.95;69.63;102485.53;5992166;23;20452;-71
2022/02/11 11:06:04;;;;;;;3.13;3.03;;;;;;;6.07;67.79;102534.16;6029375;23;20018;-71
2022/02/11 11:08:35;;;;;;;3.38;3.25;;;;;;;5.88;68.46;102517.69;5996215;23;20284;-70
2022/02/11 11:11:10;;;;;;;3.20;3.10;;;;;;;6.11;65.28;102539.34;5998981;23;20045;-70
2022/02/11 11:13:38;;;;;;;4.47;4.28;;;;;;;5.84;65.81;102522.03;6017453;23;20512;-71
2022/02/11 11:16:07;;;;;;;3.20;3.10;;;;;;;6.16;63.89;102553.22;6039615;23;20035;-70
2022/02/11 11:18:37;;;;;;;3.78;3.65;;;;;;;5.79;61.64;102488.19;6005278;23;20078;-71
2022/02/11 11:21:08;;;;;;;3.50;3.30;;;;;;;5.79;62.54;102469.06;6000278;23;20031;-71
2022/02/11 11:23:37;;;;;;;5.75;5.28;;;;;;;6.03;62.55;102548.91;6038438;23;20027;-71
2022/02/11 11:26:06;;;;;;;3.25;3.15;;;;;;;6.15;62.43;102554.13;6003176;23;20452;-71
2022/02/11 11:28:46;;;;;;;4.53;4.13;;;;;;;5.87;62.39;102568.91;6029687;23;20027;-71
2022/02/11 11:31:18;;;;;;;3.10;3.00;;;;;;;5.65;64.10;102569.84;6002014;23;20228;-71
2022/02/11 11:33:44;;;;;;;4.90;4.70;;;;;;;6.01;62.58;102570.66;6013628;23;20015;-70
2022/02/11 11:36:12;;;;;;;3.30;3.20;;;;;;;6.10;60.72;102587.13;6007030;23;20036;-71
2022/02/11 11:38:44;;;;;;;4.53;4.32;;;;;;;6.05;59.35;102512.44;6003705;23;20108;-71
2022/02/11 11:41:13;;;;;;;3.38;3.28;;;;;;;6.55;59.67;102571.31;6028398;23;20035;-71
2022/02/11 11:43:44;;;;;;;3.58;3.47;;;;;;;6.64;60.32;102575.63;6013116;23;20050;-71
2022/02/11 11:46:17;;;;;;;3.05;2.95;;;;;;;6.56;59.25;102579.13;6042746;23;20435;-71
2022/02/11 11:49:09;;;;;;;4.80;4.60;;;;;;;6.33;59.80;102579.22;6024998;23;20204;-70
2022/02/11 11:51:35;;;;;;;4.40;4.20;;;;;;;6.18;60.19;102584.50;6039193;23;20030;-71
2022/02/11 11:54:23;;;;;;;3.00;2.90;;;;;;;6.16;60.21;102588.88;5989114;23;20029;-71
2022/02/11 11:56:52;;;;;;;3.60;3.50;;;;;;;6.12;60.90;102581.94;6032245;23;20507;-71
2022/02/11 11:59:20;;;;;;;3.47;3.38;;;;;;;5.91;58.79;102581.09;6015853;23;20074;-71
2022/02/11 12:02:14;;;;;;;4.95;4.75;;;;;;;5.77;58.17;102608.88;5994131;23;20094;-71
2022/02/11 12:04:41;;;;;;;4.95;4.75;;;;;;;6.05;57.47;102580.19;5988081;23;20027;-71
2022/02/11 12:07:10;;;;;;;3.35;3.22;;;;;;;6.12;55.47;102584.53;6010203;23;20094;-71
2022/02/11 12:09:38;;;;;;;4.82;4.63;;;;;;;6.39;55.48;102589.66;6018092;23;20015;-70
2022/02/11 12:12:12;;;;;;;3.60;3.50;;;;;;;6.40;54.91;102593.13;5996758;23;20109;-71
2022/02/11 12:14:41;;;;;;;4.85;4.65;;;;;;;6.02;52.98;102520.28;6013704;23;20068;-70
2022/02/11 12:17:09;;;;;;;3.40;3.30;;;;;;;6.26;52.61;102593.16;6026204;23;20051;-71
2022/02/11 12:19:37;;;;;;;4.20;4.00;;;;;;;5.72;52.51;102542.91;6027961;23;20011;-70
2022/02/11 12:22:08;;;;;;;3.30;3.20;;;;;;;5.91;52.84;102614.97;6004747;23;20330;-71
2022/02/11 12:27:33;;;;;;;3.20;3.10;;;;;;;5.97;55.94;102601.97;6004123;23;20278;-68
2022/02/11 12:30:06;;;;;;;3.20;3.10;;;;;;;6.24;55.06;102576.66;6018258;23;20425;-69
2022/02/11 12:32:47;;;;;;;3.67;3.55;;;;;;;5.77;54.11;102471.69;6016702;23;20023;-69
2022/02/11 12:35:17;;;;;;;3.20;3.10;;;;;;;6.50;52.38;102604.38;5990296;23;20047;-69
2022/02/11 12:37:46;;;;;;;6.22;5.85;;;;;;;6.74;52.73;102609.47;6023798;23;20050;-69
2022/02/11 12:40:23;;;;;;;3.20;3.10;;;;;;;6.75;49.48;102612.94;6038693;23;20369;-69
2022/02/11 12:42:52;;;;;;;3.58;3.47;;;;;;;7.06;49.57;102615.38;6005977;23;20256;-69
2022/02/11 12:45:25;;;;;;;3.30;3.20;;;;;;;7.29;49.61;102618.69;6054033;23;20037;-70
2022/02/11 12:47:53;;;;;;;3.60;3.50;;;;;;;7.51;48.74;102639.41;5982773;23;20015;-71
2022/02/11 12:50:34;;;;;;;3.30;3.20;;;;;;;7.43;48.96;102621.19;6030353;23;20366;-68
2022/02/11 12:53:13;;;;;;;3.50;3.40;;;;;;;7.22;48.72;102603.06;6004426;23;20078;-69
2022/02/11 12:55:40;;;;;;;4.88;4.68;;;;;;;7.04;50.17;102630.19;6023922;23;20085;-69
2022/02/11 12:58:08;;;;;;;3.63;3.53;;;;;;;6.68;49.90;102634.75;6025901;23;20098;-70
2022/02/11 13:00:41;;;;;;;5.05;4.85;;;;;;;5.31;51.98;102401.53;6031668;23;20058;-72
2022/02/11 13:03:13;;;;;;;3.50;3.40;;;;;;;6.75;53.18;102631.22;5994002;23;20118;-70
2022/02/11 13:05:46;;;;;;;4.85;4.65;;;;;;;6.52;52.08;102623.50;6023909;23;20358;-70
2022/02/11 13:08:22;;;;;;;4.32;4.13;;;;;;;5.20;52.81;102413.69;6015226;23;20160;-71
2022/02/11 13:11:01;;;;;;;4.47;4.28;;;;;;;5.54;52.98;102510.81;5994652;23;20734;-71
2022/02/11 13:13:30;;;;;;;3.70;3.60;;;;;;;6.08;52.02;102641.03;6025058;23;21102;-74
2022/02/11 13:15:58;;;;;;;3.42;3.33;;;;;;;5.84;52.13;102651.47;5994792;23;20091;-75
2022/02/11 13:18:26;;;;;;;3.42;3.33;;;;;;;5.16;53.28;102562.94;6031207;23;20011;-73
2022/02/11 13:21:01;;;;;;;3.40;3.30;;;;;;;5.78;50.95;102650.56;6023477;23;20357;-72
2022/02/11 13:23:28;;;;;;;3.50;3.40;;;;;;;5.58;50.24;102582.88;6022221;23;20045;-75
2022/02/11 13:25:56;;;;;;;4.07;3.90;;;;;;;6.25;48.95;102637.50;6020763;23;20446;-67
2022/02/11 13:28:24;;;;;;;3.30;3.20;;;;;;;6.41;49.59;102648.75;5990591;23;20174;-71
2022/02/11 13:30:59;;;;;;;3.65;3.55;;;;;;;5.50;50.23;102487.41;6021215;23;20536;-73
2022/02/11 13:33:27;;;;;;;3.85;3.67;;;;;;;6.54;50.02;102658.28;6016003;23;20086;-70
2022/02/11 13:35:59;;;;;;;5.70;5.40;;;;;;;6.63;48.64;102659.97;5986052;23;20023;-70
2022/02/11 13:38:37;;;;;;;3.50;3.40;;;;;;;6.65;48.48;102677.34;5988629;23;20087;-70
2022/02/11 13:41:07;;;;;;;5.15;4.95;;;;;;;6.17;48.49;102616.66;5965943;23;20033;-69
2022/02/11 13:43:55;;;;;;;3.40;3.30;;;;;;;6.14;49.68;102621.91;6022557;23;20484;-69
2022/02/11 13:46:49;;;;;;;3.15;3.05;;;;;;;6.22;49.72;102607.09;6030845;23;20106;-69
2022/02/11 13:49:16;;;;;;;3.55;3.45;;;;;;;6.52;49.83;102665.25;5986051;23;20070;-69
2022/02/11 13:53:01;;;;;;;3.65;3.55;;;;;;;6.17;49.77;102611.44;6023083;23;20053;-68
2022/02/11 13:54:31;;;;;;;3.53;3.42;;;;;;;6.63;48.71;102683.44;6030208;23;20014;-69
2022/02/11 13:57:00;;;;;;;4.63;4.43;;;;;;;6.20;48.08;102603.63;5986358;23;20047;-68
2022/02/11 13:59:30;;;;;;;3.40;3.30;;;;;;;6.91;46.97;102668.53;5995514;23;20650;-69
2022/02/11 14:02:08;;;;;;;4.60;4.40;;;;;;;4.37;46.14;102252.56;6024700;23;20023;-70
2022/02/11 14:04:35;;;;;;;3.60;3.50;;;;;;;6.90;46.33;102674.66;5972932;23;20011;-70
2022/02/11 14:07:03;;;;;;;5.18;4.97;;;;;;;6.93;45.57;102674.59;6038935;23;20033;-71
2022/02/11 14:09:36;;;;;;;16.23;15.43;;;;;;;7.07;45.99;102682.38;5929700;23;20242;-71
2022/02/11 14:12:04;;;;;;;4.75;4.55;;;;;;;7.09;45.04;102686.69;5974779;23;20455;-70
2022/02/11 14:14:34;;;;;;;3.30;3.20;;;;;;;6.84;43.83;102691.19;6005360;23;20047;-70
2022/02/11 14:17:02;;;;;;;4.68;4.47;;;;;;;6.74;45.56;102695.56;6008103;23;20500;-71
2022/02/11 14:19:30;;;;;;;3.60;3.50;;;;;;;6.48;45.39;102692.22;6003669;23;20413;-70
2022/02/11 14:21:58;;;;;;;5.57;5.28;;;;;;;6.44;45.06;102703.53;6006039;23;20066;-70
2022/02/11 14:24:26;;;;;;;3.42;3.33;;;;;;;6.33;46.52;102699.16;5992756;23;20007;-71
2022/02/11 14:26:53;;;;;;;4.10;3.95;;;;;;;6.25;46.30;102708.75;6022610;23;20597;-69
2022/02/11 14:29:20;;;;;;;3.40;3.30;;;;;;;6.27;45.24;102696.56;6010854;23;20058;-71
2022/02/11 14:31:48;;;;;;;3.58;3.47;;;;;;;6.24;46.60;102699.22;6022418;23;20047;-70
2022/02/11 14:34:15;;;;;;;3.60;3.45;;;;;;;6.15;46.99;102678.34;6016182;23;20075;-72
2022/02/11 14:36:43;;;;;;;3.60;3.47;;;;;;;6.24;47.43;102725.28;5994185;23;20404;-72
2022/02/11 14:39:13;;;;;;;3.90;3.72;;;;;;;6.07;46.69;102698.34;6030112;23;20022;-73
2022/02/11 14:41:46;;;;;;;3.20;3.10;;;;;;;5.93;48.22;102644.50;5995469;23;20202;-69
2022/02/11 14:44:20;;;;;;;4.60;4.40;;;;;;;6.26;46.95;102717.47;5963916;23;20015;-69
2022/02/11 14:46:48;;;;;;;3.50;3.40;;;;;;;6.25;48.70;102736.56;6016280;23;20102;-69
2022/02/11 14:49:17;;;;;;;3.38;3.28;;;;;;;6.19;47.31;102732.22;6022200;23;21494;-69
2022/02/11 14:51:49;;;;;;;3.50;3.40;;;;;;;5.25;48.67;102599.38;6005035;23;20023;-69
2022/02/11 14:54:16;;;;;;;;;;;;;;;6.13;48.44;102724.41;5994380;23;20032;-73
2022/02/11 14:56:43;;;;;;;3.50;3.40;;;;;;;6.16;48.70;102732.25;6009360;23;19906;-69
2022/02/11 14:59:11;;;;;;;3.50;3.40;;;;;;;6.07;50.49;102709.63;6012411;23;20099;-68
2022/02/11 15:01:42;;;;;;;3.33;3.22;;;;;;;6.10;50.07;102737.47;5995939;23;20191;-68
2022/02/11 15:04:09;;;;;;;4.28;4.07;;;;;;;5.62;50.00;102676.66;6024441;23;20034;-68
2022/02/11 15:06:36;;;;;;;3.30;3.20;;;;;;;6.06;49.31;102748.75;6031183;23;20047;-67
2022/02/11 15:09:05;;;;;;;4.57;4.38;;;;;;;5.91;49.23;102757.41;6030304;23;20440;-69
2022/02/11 15:11:32;;;;;;;3.38;3.28;;;;;;;5.29;48.10;102693.94;5998277;23;20019;-70
2022/02/11 15:13:59;;;;;;;5.20;5.00;;;;;;;5.67;47.55;102761.72;6028602;23;20159;-68
2022/02/11 15:16:25;;;;;;;3.50;3.40;;;;;;;5.36;46.96;102738.22;6030907;23;20025;-67
2022/02/11 15:18:52;;;;;;;3.88;3.72;;;;;;;5.46;46.81;102766.91;6006381;23;20055;-71
2022/02/11 15:21:21;;;;;;;3.30;3.20;;;;;;;4.61;48.15;102646.94;6038302;23;20452;-70
2022/02/11 15:23:48;;;;;;;3.60;3.50;;;;;;;3.62;49.25;102532.97;6031753;23;20104;-71
2022/02/11 15:26:16;;;;;;;3.58;3.47;;;;;;;4.68;48.55;102703.28;6034945;23;20154;-70